createdAt,value
2022-08-12T00:01:12.203Z,20.09
2022-08-12T00:03:58.836Z,20.12
2022-08-12T00:06:47.000Z,20.11
2022-08-12T00:09:33.179Z,20.08
2022-08-12T00:12:20.703Z,20.00
2022-08-12T00:15:08.429Z,19.87
2022-08-12T00:17:54.961Z,19.72
2022-08-12T00:20:41.076Z,19.61
2022-08-12T00:23:27.184Z,19.47
2022-08-12T00:26:22.420Z,19.36
2022-08-12T00:29:11.910Z,19.25
2022-08-12T00:32:00.473Z,19.21
2022-08-12T00:34:48.495Z,19.19
2022-08-12T00:37:35.896Z,19.23
2022-08-12T00:40:24.047Z,19.27
2022-08-12T00:42:53.482Z,19.38
2022-08-12T00:45:21.378Z,19.54
2022-08-12T00:47:51.319Z,19.68
2022-08-12T00:50:21.051Z,19.82
2022-08-12T00:52:52.536Z,20.02
2022-08-12T00:55:21.277Z,20.18
2022-08-12T00:57:51.166Z,20.31
2022-08-12T01:00:22.223Z,20.45
2022-08-12T01:02:51.774Z,20.58
2022-08-12T01:05:39.985Z,20.68
2022-08-12T01:08:27.526Z,20.79
2022-08-12T01:11:14.905Z,20.87
2022-08-12T01:13:48.075Z,20.94
2022-08-12T01:16:22.113Z,20.99
2022-08-12T01:18:51.862Z,21.03
2022-08-12T01:21:46.225Z,21.06
2022-08-12T01:24:43.145Z,21.11
2022-08-12T01:27:13.722Z,21.16
2022-08-12T01:29:44.217Z,21.21
2022-08-12T01:32:13.929Z,21.25
2022-08-12T01:34:48.512Z,21.27
2022-08-12T01:37:19.573Z,21.31
2022-08-12T01:40:35.558Z,21.35
2022-08-12T01:42:45.670Z,21.36
2022-08-12T01:45:16.856Z,21.35
2022-08-12T01:47:51.284Z,21.34
2022-08-12T01:50:32.569Z,21.33
2022-08-12T01:53:04.547Z,21.32
2022-08-12T01:55:36.680Z,21.31
2022-08-12T01:58:15.572Z,21.30
2022-08-12T02:00:55.491Z,21.30
2022-08-12T02:04:02.346Z,21.31
2022-08-12T02:07:04.712Z,21.31
2022-08-12T02:10:07.637Z,21.31
2022-08-12T02:12:48.608Z,21.26
2022-08-12T02:15:26.814Z,21.25
2022-08-12T02:18:11.557Z,21.25
2022-08-12T02:21:01.455Z,21.21
2022-08-12T02:23:30.835Z,21.19
2022-08-12T02:26:04.308Z,21.18
2022-08-12T02:28:32.923Z,21.21
2022-08-12T02:31:05.778Z,21.24
2022-08-12T02:33:34.375Z,21.25
2022-08-12T02:36:04.096Z,21.23
2022-08-12T02:38:32.473Z,21.21
2022-08-12T02:41:04.423Z,21.21
2022-08-12T02:43:36.641Z,21.21
2022-08-12T02:46:13.404Z,21.18
2022-08-12T02:48:49.716Z,21.12
2022-08-12T02:51:19.921Z,21.07
2022-08-12T02:54:04.663Z,21.02
2022-08-12T02:56:37.296Z,20.98
2022-08-12T02:59:06.392Z,20.97
2022-08-12T03:01:47.767Z,20.91
2022-08-12T03:04:25.935Z,20.85
2022-08-12T03:07:02.129Z,20.80
2022-08-12T03:09:39.084Z,20.75
2022-08-12T03:12:24.622Z,20.69
2022-08-12T03:14:55.505Z,20.68
2022-08-12T03:17:29.017Z,20.66
2022-08-12T03:20:10.104Z,20.62
2022-08-12T03:22:40.287Z,20.59
2022-08-12T03:25:15.738Z,20.54
2022-08-12T03:27:49.119Z,20.50
2022-08-12T03:30:19.138Z,20.47
2022-08-12T03:32:49.559Z,20.42
2022-08-12T03:35:40.448Z,20.38
2022-08-12T03:38:15.321Z,20.37
2022-08-12T03:41:15.178Z,20.34
2022-08-12T03:44:10.064Z,20.30
2022-08-12T03:47:00.603Z,20.28
2022-08-12T03:49:47.309Z,20.24
2022-08-12T03:52:33.764Z,20.22
2022-08-12T03:55:20.572Z,20.19
2022-08-12T03:58:08.695Z,20.18
2022-08-12T04:00:37.385Z,20.15
2022-08-12T04:03:25.279Z,20.15
2022-08-12T04:05:55.901Z,20.14
2022-08-12T04:08:26.558Z,20.12
2022-08-12T04:11:14.510Z,20.10
2022-08-12T04:13:42.265Z,20.07
2022-08-12T04:16:12.889Z,20.03
2022-08-12T04:18:41.698Z,19.96
2022-08-12T04:21:09.877Z,19.87
2022-08-12T04:23:38.391Z,19.77
2022-08-12T04:26:06.555Z,19.68
2022-08-12T04:28:34.346Z,19.60
2022-08-12T04:31:03.990Z,19.52
2022-08-12T04:33:32.424Z,19.48
2022-08-12T04:36:00.309Z,19.42
2022-08-12T04:38:31.506Z,19.38
2022-08-12T04:40:59.958Z,19.33
2022-08-12T04:44:01.502Z,19.31
2022-08-12T04:46:19.543Z,19.34
2022-08-12T04:48:50.943Z,19.33
2022-08-12T04:51:21.034Z,19.33
2022-08-12T04:53:49.900Z,19.29
2022-08-12T04:56:18.451Z,19.28
2022-08-12T04:58:52.072Z,19.29
2022-08-12T05:01:20.468Z,19.31
2022-08-12T05:03:51.046Z,19.33
2022-08-12T05:06:26.343Z,19.35
2022-08-12T05:08:55.996Z,19.37
2022-08-12T05:11:24.574Z,19.37
2022-08-12T05:13:57.230Z,19.36
2022-08-12T05:16:30.894Z,19.36
2022-08-12T05:19:01.614Z,19.38
2022-08-12T05:21:30.370Z,19.42
2022-08-12T05:23:58.147Z,19.47
2022-08-12T05:26:26.553Z,19.50
2022-08-12T05:28:54.460Z,19.53
2022-08-12T05:31:47.228Z,19.57
2022-08-12T05:34:13.877Z,19.60
2022-08-12T05:36:43.112Z,19.63
2022-08-12T05:39:10.880Z,19.65
2022-08-12T05:41:39.273Z,19.68
2022-08-12T05:44:09.271Z,19.70
2022-08-12T05:46:37.679Z,19.74
2022-08-12T05:49:06.093Z,19.78
2022-08-12T05:51:40.800Z,19.81
2022-08-12T05:54:10.732Z,19.85
2022-08-12T05:56:39.391Z,19.90
2022-08-12T05:59:10.503Z,19.95
2022-08-12T06:02:09.255Z,20.01
2022-08-12T06:04:27.204Z,20.08
2022-08-12T06:06:55.166Z,20.13
2022-08-12T06:09:24.904Z,20.17
2022-08-12T06:12:04.913Z,20.22
2022-08-12T06:14:35.837Z,20.29
2022-08-12T06:17:04.990Z,20.37
2022-08-12T06:20:26.015Z,20.45
2022-08-12T06:22:20.608Z,20.55
2022-08-12T06:24:49.079Z,20.64
2022-08-12T06:27:18.009Z,20.72
2022-08-12T06:30:08.821Z,20.80
2022-08-12T06:32:34.481Z,20.99
2022-08-12T06:35:23.027Z,21.29
2022-08-12T06:37:56.645Z,21.52
2022-08-12T06:40:44.520Z,21.71
2022-08-12T06:43:13.441Z,21.90
2022-08-12T06:45:46.075Z,22.06
2022-08-12T06:48:15.927Z,22.23
2022-08-12T06:50:45.389Z,22.36
2022-08-12T06:53:13.274Z,22.47
2022-08-12T06:55:58.013Z,22.56
2022-08-12T06:58:27.148Z,22.70
2022-08-12T07:00:57.134Z,22.80
2022-08-12T07:03:28.027Z,22.93
2022-08-12T07:05:58.724Z,23.04
2022-08-12T07:08:28.313Z,23.16
2022-08-12T07:10:58.808Z,23.27
2022-08-12T07:13:28.157Z,23.40
2022-08-12T07:15:55.965Z,23.49
2022-08-12T07:18:29.465Z,23.57
2022-08-12T07:20:59.798Z,23.65
2022-08-12T07:23:30.124Z,23.72
2022-08-12T07:25:58.534Z,23.79
2022-08-12T07:28:30.313Z,23.91
2022-08-12T07:30:58.454Z,23.99
2022-08-12T07:33:28.767Z,24.09
2022-08-12T07:35:58.882Z,24.15
2022-08-12T07:38:30.444Z,24.24
2022-08-12T07:41:02.681Z,24.33
2022-08-12T07:43:31.800Z,24.42
2022-08-12T07:46:00.074Z,24.48
2022-08-12T07:48:34.252Z,24.57
2022-08-12T07:51:02.383Z,24.68
2022-08-12T07:53:30.223Z,24.77
2022-08-12T07:55:57.978Z,24.84
2022-08-12T07:58:26.848Z,24.93
2022-08-12T08:00:56.958Z,25.00
2022-08-12T08:03:25.495Z,25.08
2022-08-12T08:05:53.680Z,25.12
2022-08-12T08:08:24.249Z,25.15
2022-08-12T08:11:16.382Z,25.15
2022-08-12T08:13:46.541Z,25.24
2022-08-12T08:16:15.317Z,25.33
2022-08-12T08:18:43.515Z,25.37
2022-08-12T08:21:11.730Z,25.49
2022-08-12T08:24:02.016Z,25.57
2022-08-12T08:26:33.187Z,25.59
2022-08-12T08:29:02.410Z,25.62
2022-08-12T08:31:31.977Z,25.73
2022-08-12T08:34:47.197Z,25.84
2022-08-12T08:36:49.255Z,25.92
2022-08-12T08:39:17.220Z,26.02
2022-08-12T08:42:16.871Z,26.10
2022-08-12T08:44:49.776Z,26.20
2022-08-12T08:47:26.126Z,26.30
2022-08-12T08:50:00.307Z,26.42
2022-08-12T08:52:40.053Z,26.53
2022-08-12T08:55:10.497Z,26.66
2022-08-12T08:57:44.181Z,26.72
2022-08-12T09:00:17.685Z,26.74
2022-08-12T09:02:49.204Z,26.74
2022-08-12T09:05:27.031Z,26.83
2022-08-12T09:08:09.038Z,26.93
2022-08-12T09:10:45.002Z,27.07
2022-08-12T09:16:16.774Z,27.17
2022-08-12T09:18:48.414Z,27.21
2022-08-12T09:21:23.205Z,27.26
2022-08-12T09:24:00.368Z,27.29
2022-08-12T09:26:46.021Z,27.34
2022-08-12T09:29:15.399Z,27.41
2022-08-12T09:32:03.969Z,27.48
2022-08-12T09:34:33.575Z,27.58
2022-08-12T09:37:20.099Z,27.70
2022-08-12T09:40:06.207Z,27.82
2022-08-12T09:43:18.049Z,27.93
2022-08-12T09:46:11.499Z,27.99
2022-08-12T09:48:36.699Z,28.09
2022-08-12T09:51:16.903Z,28.22
2022-08-12T09:54:08.654Z,28.40
2022-08-12T09:57:00.870Z,28.57
2022-08-12T10:00:12.897Z,28.72
2022-08-12T10:02:42.719Z,28.83
2022-08-12T10:05:04.247Z,28.90
2022-08-12T10:07:39.663Z,28.91
2022-08-12T10:10:24.372Z,28.94
2022-08-12T10:13:20.539Z,28.98
2022-08-12T10:16:06.037Z,29.21
2022-08-12T10:18:36.650Z,29.52
2022-08-12T10:21:23.318Z,30.05
2022-08-12T10:23:56.741Z,30.55
2022-08-12T10:26:39.931Z,30.98
2022-08-12T10:30:38.427Z,31.32
2022-08-12T10:32:45.396Z,31.68
2022-08-12T10:35:09.327Z,31.96
2022-08-12T10:38:37.172Z,32.21
2022-08-12T10:40:32.023Z,32.36
2022-08-12T10:43:18.533Z,32.18
2022-08-12T10:45:48.467Z,32.38
2022-08-12T10:48:21.268Z,32.65
2022-08-12T10:50:58.362Z,32.88
2022-08-12T10:53:45.864Z,33.04
2022-08-12T10:56:15.666Z,33.29
2022-08-12T10:58:45.881Z,33.40
2022-08-12T11:04:15.131Z,33.39
2022-08-12T11:04:20.236Z,33.38
2022-08-12T11:07:06.569Z,33.59
2022-08-12T11:09:59.790Z,33.72
2022-08-12T11:12:56.505Z,33.68
2022-08-12T11:15:33.525Z,33.69
2022-08-12T11:18:12.101Z,33.61
2022-08-12T11:20:47.173Z,33.58
2022-08-12T11:23:24.981Z,33.55
2022-08-12T11:26:06.319Z,33.50
2022-08-12T11:28:37.672Z,33.79
2022-08-12T11:31:12.355Z,34.15
2022-08-12T11:34:05.050Z,34.40
2022-08-12T11:36:30.930Z,34.63
2022-08-12T11:39:04.148Z,34.81
2022-08-12T11:41:33.902Z,34.91
2022-08-12T11:44:35.200Z,34.79
2022-08-12T11:46:52.661Z,35.01
2022-08-12T11:49:30.532Z,35.25
2022-08-12T11:52:03.498Z,35.48
2022-08-12T11:54:33.511Z,35.46
2022-08-12T11:57:02.739Z,35.44
2022-08-12T12:02:40.269Z,35.41
2022-08-12T12:05:09.155Z,35.61
2022-08-12T12:08:37.532Z,35.79
2022-08-12T12:10:29.129Z,35.66
2022-08-12T12:12:57.080Z,35.65
2022-08-12T12:15:37.354Z,35.84
2022-08-12T12:18:22.536Z,35.89
2022-08-12T12:21:02.194Z,35.84
2022-08-12T12:23:36.235Z,35.76
2022-08-12T12:26:07.908Z,35.81
2022-08-12T12:28:39.779Z,35.98
2022-08-12T12:31:15.066Z,36.09
2022-08-12T12:33:58.581Z,36.12
2022-08-12T12:36:30.232Z,36.13
2022-08-12T12:39:00.080Z,36.23
2022-08-12T12:42:41.794Z,36.19
2022-08-12T12:44:26.124Z,36.11
2022-08-12T12:47:04.878Z,36.14
2022-08-12T12:49:53.640Z,35.99
2022-08-12T12:52:21.704Z,36.24
2022-08-12T12:54:57.822Z,36.52
2022-08-12T12:57:36.459Z,36.59
2022-08-12T13:00:16.835Z,36.41
2022-08-12T13:02:53.627Z,35.70
2022-08-12T13:05:27.883Z,34.90
2022-08-12T13:08:01.044Z,34.52
2022-08-12T13:10:36.552Z,34.70
2022-08-12T13:14:07.878Z,35.17
2022-08-12T13:15:59.276Z,35.68
2022-08-12T13:18:30.733Z,35.94
2022-08-12T13:20:59.579Z,35.93
2022-08-12T13:23:36.114Z,35.93
2022-08-12T13:26:07.105Z,35.86
2022-08-12T13:28:45.018Z,35.99
2022-08-12T13:31:24.927Z,36.10
2022-08-12T13:34:32.838Z,36.33
2022-08-12T13:36:41.568Z,36.68
2022-08-12T13:39:09.676Z,37.07
2022-08-12T13:41:38.315Z,37.39
2022-08-12T13:44:10.626Z,37.48
2022-08-12T13:46:41.324Z,37.45
2022-08-12T13:49:17.642Z,37.43
2022-08-12T13:52:01.648Z,37.38
2022-08-12T13:54:29.385Z,37.00
2022-08-12T13:56:57.191Z,36.46
2022-08-12T13:59:26.714Z,35.63
2022-08-12T14:01:56.810Z,35.06
2022-08-12T14:04:23.868Z,35.03
2022-08-12T14:06:53.292Z,35.18
2022-08-12T14:09:21.121Z,35.44
2022-08-12T14:11:59.180Z,35.73
2022-08-12T14:14:31.466Z,35.96
2022-08-12T14:17:09.988Z,36.11
2022-08-12T14:20:00.393Z,36.51
2022-08-12T14:22:29.144Z,36.97
2022-08-12T14:24:58.374Z,37.21
2022-08-12T14:28:03.515Z,37.46
2022-08-12T14:30:24.114Z,37.76
2022-08-12T14:33:02.875Z,37.77
2022-08-12T14:35:41.092Z,37.33
2022-08-12T14:38:25.450Z,36.74
2022-08-12T14:40:56.832Z,36.14
2022-08-12T14:43:26.916Z,35.64
2022-08-12T14:46:01.596Z,35.55
2022-08-12T14:48:30.052Z,35.77
2022-08-12T14:52:10.410Z,36.02
2022-08-12T14:55:05.698Z,36.45
2022-08-12T14:59:57.637Z,36.87
2022-08-12T15:02:28.919Z,36.89
2022-08-12T15:04:59.946Z,36.39
2022-08-12T15:07:34.469Z,35.93
2022-08-12T15:10:31.725Z,35.27
2022-08-12T15:13:05.017Z,34.71
2022-08-12T15:15:44.073Z,34.78
2022-08-12T15:18:15.666Z,35.17
2022-08-12T15:20:50.678Z,35.23
2022-08-12T15:23:21.583Z,35.15
2022-08-12T15:26:02.445Z,34.85
2022-08-12T15:28:33.238Z,34.62
2022-08-12T15:31:02.516Z,34.96
2022-08-12T15:33:44.924Z,35.38
2022-08-12T15:36:19.492Z,35.89
2022-08-12T15:39:03.974Z,36.21
2022-08-12T15:41:49.110Z,36.31
2022-08-12T15:44:38.502Z,36.36
2022-08-12T15:47:07.199Z,36.53
2022-08-12T15:49:55.003Z,36.66
2022-08-12T15:52:27.934Z,36.48
2022-08-12T15:54:59.105Z,36.17
2022-08-12T15:57:50.356Z,35.76
2022-08-12T16:00:32.791Z,35.29
2022-08-12T16:03:05.785Z,35.00
2022-08-12T16:06:11.359Z,34.44
2022-08-12T16:08:31.783Z,34.01
2022-08-12T16:11:00.267Z,33.63
2022-08-12T16:13:39.296Z,33.23
2022-08-12T16:16:23.750Z,32.80
2022-08-12T16:18:56.638Z,32.41
2022-08-12T16:21:52.306Z,32.15
2022-08-12T16:24:12.849Z,31.87
2022-08-12T16:26:42.328Z,31.61
2022-08-12T16:29:15.648Z,31.25
2022-08-12T16:31:44.799Z,30.94
2022-08-12T16:34:25.825Z,30.64
2022-08-12T16:37:03.701Z,30.31
2022-08-12T16:39:35.302Z,30.12
2022-08-12T16:42:23.969Z,29.96
2022-08-12T16:44:58.793Z,29.84
2022-08-12T16:47:27.534Z,29.75
2022-08-12T16:49:57.274Z,29.66
2022-08-12T16:52:25.101Z,29.59
2022-08-12T16:54:53.231Z,29.51
2022-08-12T16:57:43.046Z,29.46
2022-08-12T17:00:16.323Z,29.40
2022-08-12T17:02:50.664Z,29.35
2022-08-12T17:05:31.317Z,29.29
2022-08-12T17:07:59.597Z,29.24
2022-08-12T17:10:35.575Z,29.19
2022-08-12T17:13:09.885Z,29.11
2022-08-12T17:15:57.004Z,29.05
2022-08-12T17:18:44.043Z,28.98
2022-08-12T17:21:19.782Z,28.87
2022-08-12T17:23:53.627Z,28.76
2022-08-12T17:26:28.280Z,28.67
2022-08-12T17:29:00.225Z,28.57
2022-08-12T17:32:00.233Z,28.50
2022-08-12T17:34:33.620Z,28.40
2022-08-12T17:37:04.942Z,28.28
2022-08-12T17:39:36.676Z,28.21
2022-08-12T17:42:32.539Z,28.13
2022-08-12T17:45:17.822Z,28.04
2022-08-12T17:48:01.539Z,27.97
2022-08-12T17:50:36.093Z,27.90
2022-08-12T17:53:05.664Z,27.84
2022-08-12T17:55:44.113Z,27.76
2022-08-12T17:58:17.122Z,27.68
2022-08-12T18:00:45.596Z,27.58
2022-08-12T18:03:58.233Z,27.50
2022-08-12T18:06:13.729Z,27.40
2022-08-12T18:08:54.181Z,27.30
2022-08-12T18:12:06.519Z,27.19
2022-08-12T18:14:37.040Z,27.07
2022-08-12T18:17:08.888Z,26.97
2022-08-12T18:20:05.808Z,26.88
2022-08-12T18:22:40.768Z,26.76
2022-08-12T18:26:12.270Z,26.65
2022-08-12T18:28:15.672Z,26.53
2022-08-12T18:30:52.191Z,26.42
2022-08-12T18:33:24.239Z,26.32
2022-08-12T18:35:55.531Z,26.22
2022-08-12T18:38:26.342Z,26.09
2022-08-12T18:41:22.084Z,25.96
2022-08-12T18:44:01.105Z,25.81
2022-08-12T18:46:46.664Z,25.64
2022-08-12T18:49:18.938Z,25.47
2022-08-12T18:51:55.635Z,25.31
2022-08-12T18:54:34.211Z,25.13
2022-08-12T18:57:06.453Z,24.95
2022-08-12T19:00:01.450Z,24.75
2022-08-12T19:02:36.264Z,24.55
2022-08-12T19:05:09.317Z,24.38
2022-08-12T19:07:57.962Z,24.23
2022-08-12T19:10:30.959Z,24.06
2022-08-12T19:13:24.224Z,23.91
2022-08-12T19:15:57.943Z,23.74
2022-08-12T19:18:29.832Z,23.60
2022-08-12T19:20:59.805Z,23.47
2022-08-12T19:23:35.555Z,23.32
2022-08-12T19:26:04.595Z,23.19
2022-08-12T19:28:35.566Z,23.07
2022-08-12T19:31:57.562Z,22.95
2022-08-12T19:37:22.901Z,22.69
2022-08-12T19:40:09.950Z,22.60
2022-08-12T19:42:53.315Z,22.50
2022-08-12T19:45:22.364Z,22.40
2022-08-12T19:47:50.121Z,22.30
2022-08-12T19:50:20.265Z,22.25
2022-08-12T19:52:51.127Z,22.17
2022-08-12T19:55:23.677Z,22.12
2022-08-12T19:58:01.791Z,22.08
2022-08-12T20:00:31.811Z,22.03
2022-08-12T20:02:59.743Z,21.95
2022-08-12T20:06:04.740Z,21.86
2022-08-12T20:08:27.929Z,21.76
2022-08-12T20:12:12.352Z,21.65
2022-08-12T20:14:01.537Z,21.56
2022-08-12T20:16:52.325Z,21.49
2022-08-12T20:19:53.295Z,21.42
2022-08-12T20:22:24.792Z,21.34
2022-08-12T20:25:01.465Z,21.27
2022-08-12T20:28:03.397Z,21.20
2022-08-12T20:30:20.502Z,21.11
2022-08-12T20:33:08.022Z,21.03
2022-08-12T20:36:12.794Z,20.95
2022-08-12T20:38:38.769Z,20.86
2022-08-12T20:41:16.232Z,20.80
2022-08-12T20:43:45.662Z,20.74
2022-08-12T20:46:14.208Z,20.69
2022-08-12T20:48:43.722Z,20.65
2022-08-12T20:51:13.558Z,20.59
2022-08-12T20:53:57.959Z,20.53
2022-08-12T20:56:32.236Z,20.46
2022-08-12T20:59:02.670Z,20.40
2022-08-12T21:01:46.651Z,20.33
2022-08-12T21:04:36.144Z,20.25
2022-08-12T21:07:09.329Z,20.18
2022-08-12T21:09:40.996Z,20.13
2022-08-12T21:12:28.159Z,20.09
2022-08-12T21:15:18.099Z,20.04
2022-08-12T21:18:08.733Z,19.97
2022-08-12T21:20:43.997Z,19.91
2022-08-12T21:23:13.153Z,19.86
2022-08-12T21:25:45.222Z,19.81
2022-08-12T21:28:13.990Z,19.76
2022-08-12T21:30:42.417Z,19.70
2022-08-12T21:33:30.858Z,19.62
2022-08-12T21:36:00.298Z,19.57
2022-08-12T21:38:34.918Z,19.54
2022-08-12T21:41:07.015Z,19.53
2022-08-12T21:43:44.479Z,19.52
2022-08-12T21:46:14.922Z,19.51
2022-08-12T21:49:04.852Z,19.49
2022-08-12T21:51:49.504Z,19.45
2022-08-12T21:54:22.013Z,19.45
2022-08-12T21:56:52.377Z,19.45
2022-08-12T21:59:21.480Z,19.43
2022-08-12T22:01:49.934Z,19.42
2022-08-12T22:04:36.460Z,19.42
2022-08-12T22:07:05.741Z,19.41
2022-08-12T22:09:42.568Z,19.39
2022-08-12T22:12:29.894Z,19.38
2022-08-12T22:14:57.681Z,19.39
2022-08-12T22:17:32.877Z,19.40
2022-08-12T22:20:17.996Z,19.41
2022-08-12T22:22:56.297Z,19.41
2022-08-12T22:25:28.007Z,19.40
2022-08-12T22:28:14.031Z,19.40
2022-08-12T22:31:00.136Z,19.41
2022-08-12T22:33:27.943Z,19.45
2022-08-12T22:35:59.242Z,19.48
2022-08-12T22:38:29.233Z,19.49
2022-08-12T22:41:01.243Z,19.52
2022-08-12T22:44:00.266Z,19.53
2022-08-12T22:46:51.886Z,19.51
2022-08-12T22:49:37.175Z,19.50
2022-08-12T22:52:11.733Z,19.49
2022-08-12T22:54:46.127Z,19.47
2022-08-12T22:57:53.206Z,19.45
2022-08-12T23:00:23.889Z,19.45
2022-08-12T23:02:56.656Z,19.45
2022-08-12T23:05:57.236Z,19.42
2022-08-12T23:08:21.481Z,19.36
2022-08-12T23:10:50.313Z,19.32
2022-08-12T23:13:43.477Z,19.29
2022-08-12T23:16:28.501Z,19.23
2022-08-12T23:19:10.691Z,19.18
2022-08-12T23:22:03.958Z,19.12
2022-08-12T23:24:53.777Z,19.08
2022-08-12T23:27:51.812Z,19.04
2022-08-12T23:30:31.950Z,19.00
2022-08-12T23:33:20.511Z,18.96
2022-08-12T23:36:02.580Z,18.89
2022-08-12T23:38:32.848Z,18.84
2022-08-12T23:41:03.301Z,18.77
2022-08-12T23:43:39.349Z,18.71
2022-08-12T23:46:10.051Z,18.65
2022-08-12T23:48:38.973Z,18.60
2022-08-12T23:51:22.399Z,18.57
2022-08-12T23:53:55.473Z,18.54
2022-08-12T23:56:23.278Z,18.51
2022-08-12T23:58:54.292Z,18.51
